Ardmore Seahawk — V7JZ8 — position and weather

sailwx.info

Track history (hours):
 
Tides and Currents Weather Stations Pressure Air Temp Water Temp Dewpoint Dewpoint Depression Visibility Wind Speed Wind Dir Waves Ship Positions

Ardmore Seahawk

Last reported at 2018-Apr-08 18:11 UTC. Time now 2018-May-21 11:19 UTC.
Position N 09°11' W 079°53'.
Warning: this ship's position is 42 days out of date.

Length 183 m; draft 12 m.

Type: Ship (hazmat cat B). MMSI: 538006132.

Date/timePositionNaut miles runAvg speedWind from/ knotsBaromVisibWave heightAir tempDewpointWater temp
2018-Apr-08 18:11N 09°11' W 079°53'310.2
2018-Apr-08 17:56N 09°13' W 079°55'3 7.5
2018-Apr-08 17:30N 09°16' W 079°55'0 0.8
2018-Apr-08 17:00N 09°16' W 079°55'0 0.3
2018-Apr-08 16:30N 09°16' W 079°55'0 0.4
2018-Apr-08 15:59N 09°17' W 079°55'0 0.3
2018-Apr-08 15:31N 09°17' W 079°55'1 1.2
2018-Apr-08 15:00N 09°17' W 079°55'2 4.3
2018-Apr-08 14:30N 09°19' W 079°55'3 5.7
2018-Apr-08 14:00N 09°22' W 079°55'3 5.2
2018-Apr-08 13:30N 09°25' W 079°56'1 1.1
2018-Apr-08 13:00N 09°25' W 079°56'0 0.1
2018-Apr-08 12:30N 09°25' W 079°57'0 0.0
2018-Apr-08 12:00N 09°25' W 079°57'0 0.0
2018-Apr-08 11:30N 09°25' W 079°57'0 0.0
2018-Apr-08 11:00N 09°25' W 079°57'0 0.0
2018-Apr-08 10:30N 09°25' W 079°57'0 0.0
2018-Apr-08 09:57N 09°25' W 079°57'0 0.1
2018-Apr-08 09:30N 09°25' W 079°57'0 0.0
2018-Apr-08 09:00N 09°25' W 079°57'0 0.0
2018-Apr-08 08:30N 09°25' W 079°57'0 0.0
2018-Apr-08 08:00N 09°25' W 079°57'0 0.0
2018-Apr-08 07:27N 09°25' W 079°57'0 0.0
2018-Apr-08 06:54N 09°25' W 079°57'0 0.0
2018-Apr-08 06:27N 09°25' W 079°57'0 0.0
2018-Apr-08 06:00N 09°25' W 079°57'0 0.0
2018-Apr-08 05:27N 09°25' W 079°57'0 0.0
2018-Apr-08 05:00N 09°25' W 079°57'0 0.0
2018-Apr-08 04:27N 09°25' W 079°57'0 0.0
2018-Apr-08 04:00N 09°25' W 079°57'0 0.0
2018-Apr-08 03:30N 09°25' W 079°57'0 0.0
2018-Apr-08 03:00N 09°25' W 079°57'0 0.0
2018-Apr-08 02:30N 09°25' W 079°56'0 0.0
2018-Apr-08 02:00N 09°25' W 079°56'0 0.0
2018-Apr-08 01:30N 09°25' W 079°56'0 0.0
2018-Apr-08 01:00N 09°25' W 079°56'0 0.0
2018-Apr-08 00:30N 09°25' W 079°56'0 0.0
2018-Apr-08 00:00N 09°25' W 079°56'0 0.0
2018-Apr-07 23:30N 09°25' W 079°56'0 0.0
2018-Apr-07 23:00N 09°25' W 079°56'0 0.0
2018-Apr-07 22:30N 09°25' W 079°56'0 0.0
2018-Apr-07 22:00N 09°25' W 079°56'0 0.0
2018-Apr-07 21:18N 09°25' W 079°56'0 0.0
2018-Apr-07 20:57N 09°25' W 079°56'0 0.1
2018-Apr-07 20:30N 09°25' W 079°56'0 0.3
2018-Apr-07 20:00N 09°25' W 079°56'1 2.5
2018-Apr-07 19:30N 09°25' W 079°55'510.0
2018-Apr-07 19:00N 09°30' W 079°54'713.0
2018-Apr-07 18:29N 09°37' W 079°53'  
2018-Apr-03 02:21N 27°30' W 092°09'412.2
2018-Apr-03 02:00N 27°33' W 092°13'8912.2
2018-Apr-02 18:45N 28°34' W 093°26'1612.5
2018-Apr-02 17:30N 28°42' W 093°41'1812.3
2018-Apr-02 16:01N 28°50' W 093°60'112.4
2018-Apr-02 15:58N 28°51' W 094°00'612.5
2018-Apr-02 15:28N 28°52' W 094°07'612.5
2018-Apr-02 15:00N 28°54' W 094°14'612.4
2018-Apr-02 14:30N 28°55' W 094°21'510.2
2018-Apr-02 14:00N 28°58' W 094°26'612.5
2018-Apr-02 13:29N 29°04' W 094°26'611.6
2018-Apr-02 13:00N 29°09' W 094°29'712.2
2018-Apr-02 12:26N 29°14' W 094°34'4 9.4
2018-Apr-02 11:58N 29°18' W 094°37'510.0
2018-Apr-02 11:28N 29°20' W 094°42'10 9.1
2018-Apr-02 10:22N 29°27' W 094°51'411.1
2018-Apr-02 10:00N 29°31' W 094°53'510.9
2018-Apr-02 09:30N 29°35' W 094°56'510.7
2018-Apr-02 09:00N 29°40' W 094°59'4 8.1
2018-Apr-02 08:30N 29°43' W 095°01'0 0.9
2018-Apr-02 07:59N 29°44' W 095°01'  
2018-Mar-30 22:04N 29°44' W 095°01'0 0.2
2018-Mar-30 22:00N 29°44' W 095°01'2 3.4
2018-Mar-30 21:30N 29°42' W 095°01'510.4
2018-Mar-30 21:00N 29°38' W 094°58'612.0
2018-Mar-30 20:30N 29°32' W 094°54'612.6
2018-Mar-30 20:00N 29°27' W 094°51'713.2
2018-Mar-30 19:30N 29°21' W 094°47'612.8
2018-Mar-30 19:00N 29°20' W 094°40'5 7.9
2018-Mar-30 18:20N 29°18' W 094°34'0 0.1
2018-Mar-30 17:21N 29°18' W 094°34'0 0.0
2018-Mar-30 16:48N 29°18' W 094°34'0 0.0
2018-Mar-30 16:27N 29°18' W 094°34'0 0.0
2018-Mar-30 15:51N 29°18' W 094°34'0 0.0
2018-Mar-30 15:24N 29°18' W 094°34'0 0.0
2018-Mar-30 14:51N 29°18' W 094°34'0 0.0
2018-Mar-30 14:18N 29°18' W 094°34'0 0.0
2018-Mar-30 13:33N 29°18' W 094°34'0 0.0
2018-Mar-30 13:30N 29°18' W 094°34'0 0.0
2018-Mar-30 13:00N 29°18' W 094°34'0 0.0
2018-Mar-30 12:15N 29°18' W 094°34'0 0.0
2018-Mar-30 11:57N 29°18' W 094°34'0 0.0
2018-Mar-30 11:27N 29°18' W 094°34'0 0.0
2018-Mar-30 11:00N 29°18' W 094°34'0 0.0
2018-Mar-30 10:18N 29°18' W 094°34'0 0.0
2018-Mar-30 09:48N 29°18' W 094°34'0 0.0
2018-Mar-30 09:27N 29°18' W 094°34'0 0.0
2018-Mar-30 09:00N 29°18' W 094°34'0 0.0
2018-Mar-30 08:24N 29°18' W 094°34'0 0.0
2018-Mar-30 07:51N 29°18' W 094°34'0 0.0
2018-Mar-30 07:24N 29°18' W 094°34'0 0.1
2018-Mar-30 06:54N 29°18' W 094°34'0 0.0
2018-Mar-30 06:24N 29°18' W 094°34'0 0.0
2018-Mar-30 05:54N 29°18' W 094°34'0 0.0
2018-Mar-30 05:27N 29°18' W 094°34'0 0.0
2018-Mar-30 05:00N 29°18' W 094°34'0 0.0
2018-Mar-30 04:30N 29°18' W 094°34'0 0.0
2018-Mar-30 04:00N 29°18' W 094°34'0 0.0
2018-Mar-30 03:30N 29°18' W 094°34'0 0.0
2018-Mar-30 03:00N 29°18' W 094°34'0 0.0
2018-Mar-30 02:24N 29°18' W 094°34'0 0.0
2018-Mar-30 02:00N 29°18' W 094°34'0 0.0
2018-Mar-30 01:24N 29°18' W 094°34'0 0.0
2018-Mar-30 00:27N 29°18' W 094°34'0 0.0
2018-Mar-30 00:00N 29°18' W 094°34'0 0.0
2018-Mar-29 23:21N 29°18' W 094°34'0 0.0
2018-Mar-29 22:54N 29°18' W 094°34'0 0.0
2018-Mar-29 22:21N 29°18' W 094°34'0 0.0
2018-Mar-29 21:39N 29°18' W 094°34'0 0.1
2018-Mar-29 21:27N 29°18' W 094°34'0 0.0
2018-Mar-29 20:57N 29°18' W 094°34'0 0.1
2018-Mar-29 20:30N 29°18' W 094°34'0 0.0
2018-Mar-29 20:00N 29°18' W 094°34'0 0.0
2018-Mar-29 19:30N 29°18' W 094°34'0 0.1
2018-Mar-29 18:48N 29°18' W 094°34'0 0.0
2018-Mar-29 18:30N 29°18' W 094°34'  
Track history (hours):
 
Tides and Currents Weather Stations Pressure Air Temp Water Temp Dewpoint Dewpoint Depression Visibility Wind Speed Wind Dir Waves Ship Positions

Ardmore Seahawk

Last reported at 2018-Apr-08 18:11 UTC. Time now 2018-May-21 11:19 UTC.
Position N 09°11' W 079°53'.
Warning: this ship's position is 42 days out of date.

Length 183 m; draft 12 m.

Type: Ship (hazmat cat B). MMSI: 538006132.

Date/timePositionNaut miles runAvg speedWind from/ knotsBaromVisibWave heightAir tempDewpointWater temp
2018-Apr-08 18:11N 09°11' W 079°53'310.2
2018-Apr-08 17:56N 09°13' W 079°55'3 7.5
2018-Apr-08 17:30N 09°16' W 079°55'0 0.8
2018-Apr-08 17:00N 09°16' W 079°55'0 0.3
2018-Apr-08 16:30N 09°16' W 079°55'0 0.4
2018-Apr-08 15:59N 09°17' W 079°55'0 0.3
2018-Apr-08 15:31N 09°17' W 079°55'1 1.2
2018-Apr-08 15:00N 09°17' W 079°55'2 4.3
2018-Apr-08 14:30N 09°19' W 079°55'3 5.7
2018-Apr-08 14:00N 09°22' W 079°55'3 5.2
2018-Apr-08 13:30N 09°25' W 079°56'1 1.1
2018-Apr-08 13:00N 09°25' W 079°56'0 0.1
2018-Apr-08 12:30N 09°25' W 079°57'0 0.0
2018-Apr-08 12:00N 09°25' W 079°57'0 0.0
2018-Apr-08 11:30N 09°25' W 079°57'0 0.0
2018-Apr-08 11:00N 09°25' W 079°57'0 0.0
2018-Apr-08 10:30N 09°25' W 079°57'0 0.0
2018-Apr-08 09:57N 09°25' W 079°57'0 0.1
2018-Apr-08 09:30N 09°25' W 079°57'0 0.0
2018-Apr-08 09:00N 09°25' W 079°57'0 0.0
2018-Apr-08 08:30N 09°25' W 079°57'0 0.0
2018-Apr-08 08:00N 09°25' W 079°57'0 0.0
2018-Apr-08 07:27N 09°25' W 079°57'0 0.0
2018-Apr-08 06:54N 09°25' W 079°57'0 0.0
2018-Apr-08 06:27N 09°25' W 079°57'0 0.0
2018-Apr-08 06:00N 09°25' W 079°57'0 0.0
2018-Apr-08 05:27N 09°25' W 079°57'0 0.0
2018-Apr-08 05:00N 09°25' W 079°57'0 0.0
2018-Apr-08 04:27N 09°25' W 079°57'0 0.0
2018-Apr-08 04:00N 09°25' W 079°57'0 0.0
2018-Apr-08 03:30N 09°25' W 079°57'0 0.0
2018-Apr-08 03:00N 09°25' W 079°57'0 0.0
2018-Apr-08 02:30N 09°25' W 079°56'0 0.0
2018-Apr-08 02:00N 09°25' W 079°56'0 0.0
2018-Apr-08 01:30N 09°25' W 079°56'0 0.0
2018-Apr-08 01:00N 09°25' W 079°56'0 0.0
2018-Apr-08 00:30N 09°25' W 079°56'0 0.0
2018-Apr-08 00:00N 09°25' W 079°56'0 0.0
2018-Apr-07 23:30N 09°25' W 079°56'0 0.0
2018-Apr-07 23:00N 09°25' W 079°56'0 0.0
2018-Apr-07 22:30N 09°25' W 079°56'0 0.0
2018-Apr-07 22:00N 09°25' W 079°56'0 0.0
2018-Apr-07 21:18N 09°25' W 079°56'0 0.0
2018-Apr-07 20:57N 09°25' W 079°56'0 0.1
2018-Apr-07 20:30N 09°25' W 079°56'0 0.3
2018-Apr-07 20:00N 09°25' W 079°56'1 2.5
2018-Apr-07 19:30N 09°25' W 079°55'510.0
2018-Apr-07 19:00N 09°30' W 079°54'713.0
2018-Apr-07 18:29N 09°37' W 079°53'  
2018-Apr-03 02:21N 27°30' W 092°09'412.2
2018-Apr-03 02:00N 27°33' W 092°13'8912.2
2018-Apr-02 18:45N 28°34' W 093°26'1612.5
2018-Apr-02 17:30N 28°42' W 093°41'1812.3
2018-Apr-02 16:01N 28°50' W 093°60'112.4
2018-Apr-02 15:58N 28°51' W 094°00'612.5
2018-Apr-02 15:28N 28°52' W 094°07'612.5
2018-Apr-02 15:00N 28°54' W 094°14'612.4
2018-Apr-02 14:30N 28°55' W 094°21'510.2
2018-Apr-02 14:00N 28°58' W 094°26'612.5
2018-Apr-02 13:29N 29°04' W 094°26'611.6
2018-Apr-02 13:00N 29°09' W 094°29'712.2
2018-Apr-02 12:26N 29°14' W 094°34'4 9.4
2018-Apr-02 11:58N 29°18' W 094°37'510.0
2018-Apr-02 11:28N 29°20' W 094°42'10 9.1
2018-Apr-02 10:22N 29°27' W 094°51'411.1
2018-Apr-02 10:00N 29°31' W 094°53'510.9
2018-Apr-02 09:30N 29°35' W 094°56'510.7
2018-Apr-02 09:00N 29°40' W 094°59'4 8.1
2018-Apr-02 08:30N 29°43' W 095°01'0 0.9
2018-Apr-02 07:59N 29°44' W 095°01'  
2018-Mar-30 22:04N 29°44' W 095°01'0 0.2
2018-Mar-30 22:00N 29°44' W 095°01'2 3.4
2018-Mar-30 21:30N 29°42' W 095°01'510.4
2018-Mar-30 21:00N 29°38' W 094°58'612.0
2018-Mar-30 20:30N 29°32' W 094°54'612.6
2018-Mar-30 20:00N 29°27' W 094°51'713.2
2018-Mar-30 19:30N 29°21' W 094°47'612.8
2018-Mar-30 19:00N 29°20' W 094°40'5 7.9
2018-Mar-30 18:20N 29°18' W 094°34'0 0.1
2018-Mar-30 17:21N 29°18' W 094°34'0 0.0
2018-Mar-30 16:48N 29°18' W 094°34'0 0.0
2018-Mar-30 16:27N 29°18' W 094°34'0 0.0
2018-Mar-30 15:51N 29°18' W 094°34'0 0.0
2018-Mar-30 15:24N 29°18' W 094°34'0 0.0
2018-Mar-30 14:51N 29°18' W 094°34'0 0.0
2018-Mar-30 14:18N 29°18' W 094°34'0 0.0
2018-Mar-30 13:33N 29°18' W 094°34'0 0.0
2018-Mar-30 13:30N 29°18' W 094°34'0 0.0
2018-Mar-30 13:00N 29°18' W 094°34'0 0.0
2018-Mar-30 12:15N 29°18' W 094°34'0 0.0
2018-Mar-30 11:57N 29°18' W 094°34'0 0.0
2018-Mar-30 11:27N 29°18' W 094°34'0 0.0
2018-Mar-30 11:00N 29°18' W 094°34'0 0.0
2018-Mar-30 10:18N 29°18' W 094°34'0 0.0
2018-Mar-30 09:48N 29°18' W 094°34'0 0.0
2018-Mar-30 09:27N 29°18' W 094°34'0 0.0
2018-Mar-30 09:00N 29°18' W 094°34'0 0.0
2018-Mar-30 08:24N 29°18' W 094°34'0 0.0
2018-Mar-30 07:51N 29°18' W 094°34'0 0.0
2018-Mar-30 07:24N 29°18' W 094°34'0 0.1
2018-Mar-30 06:54N 29°18' W 094°34'0 0.0
2018-Mar-30 06:24N 29°18' W 094°34'0 0.0
2018-Mar-30 05:54N 29°18' W 094°34'0 0.0
2018-Mar-30 05:27N 29°18' W 094°34'0 0.0
2018-Mar-30 05:00N 29°18' W 094°34'0 0.0
2018-Mar-30 04:30N 29°18' W 094°34'0 0.0
2018-Mar-30 04:00N 29°18' W 094°34'0 0.0
2018-Mar-30 03:30N 29°18' W 094°34'0 0.0
2018-Mar-30 03:00N 29°18' W 094°34'0 0.0
2018-Mar-30 02:24N 29°18' W 094°34'0 0.0
2018-Mar-30 02:00N 29°18' W 094°34'0 0.0
2018-Mar-30 01:24N 29°18' W 094°34'0 0.0
2018-Mar-30 00:27N 29°18' W 094°34'0 0.0
2018-Mar-30 00:00N 29°18' W 094°34'0 0.0
2018-Mar-29 23:21N 29°18' W 094°34'0 0.0
2018-Mar-29 22:54N 29°18' W 094°34'0 0.0
2018-Mar-29 22:21N 29°18' W 094°34'0 0.0
2018-Mar-29 21:39N 29°18' W 094°34'0 0.1
2018-Mar-29 21:27N 29°18' W 094°34'0 0.0
2018-Mar-29 20:57N 29°18' W 094°34'0 0.1
2018-Mar-29 20:30N 29°18' W 094°34'0 0.0
2018-Mar-29 20:00N 29°18' W 094°34'0 0.0
2018-Mar-29 19:30N 29°18' W 094°34'0 0.1
2018-Mar-29 18:48N 29°18' W 094°34'0 0.0
2018-Mar-29 18:30N 29°18' W 094°34'  

Dump ship's entire track history